Janesville, Illinois
Current Conditions -  °F | °C
As of 8:53 AM on Friday 19 Dec 2014 (Local Time) from KMTO Reporting Station
Clear Clear  
Wind Chill: 19°   Ceiling: Unl
Heat Index: 25°   Visibility: 7mi
Dew Point: 20°   Wind: 5mph
Humidity: 81%   Direction: 40°NE
Pressure: 30.32"   Gusts: NA
Location:  39.37°N, 88.24°W
Report Text: KMTO 191453Z AUTO 04004KT 7SM CLR M04/M07 A3032 RMK AO2 SLP278 I3000 T10391067 53014
Loading
Personal Weather Stations






























Interactive Weather Map New forecast layout! Learn more

10-Day Weather Forecast

Advertisements
Track Severe Weather on mobile